createdAt,value
2019-06-10T00:02:03.431Z,2.67
2019-06-10T00:04:31.497Z,3.23
2019-06-10T00:07:03.523Z,3.20
2019-06-10T00:09:31.421Z,2.40
2019-06-10T00:12:02.784Z,3.40
2019-06-10T00:14:31.532Z,3.00
2019-06-10T00:17:02.005Z,2.97
2019-06-10T00:19:31.825Z,2.70
2019-06-10T00:22:02.405Z,2.23
2019-06-10T00:24:31.740Z,3.20
2019-06-10T00:27:02.869Z,2.90
2019-06-10T00:29:31.626Z,2.77
2019-06-10T00:32:03.259Z,3.40
2019-06-10T00:34:34.882Z,3.27
2019-06-10T00:37:05.815Z,2.70
2019-06-10T00:39:32.870Z,2.27
2019-06-10T00:42:03.160Z,3.10
2019-06-10T00:44:32.697Z,3.30
2019-06-10T00:47:04.781Z,3.07
2019-06-10T00:49:32.509Z,2.87
2019-06-10T00:52:04.213Z,2.80
2019-06-10T00:54:32.515Z,2.70
2019-06-10T00:57:02.844Z,3.00
2019-06-10T00:59:32.248Z,3.27
2019-06-10T01:02:01.760Z,3.50
2019-06-10T01:04:32.142Z,3.37
2019-06-10T01:07:02.402Z,2.47
2019-06-10T01:09:31.741Z,2.90
2019-06-10T01:12:01.253Z,3.50
2019-06-10T01:14:32.012Z,3.00
2019-06-10T01:17:01.426Z,3.30
2019-06-10T01:19:31.095Z,2.50
2019-06-10T01:22:01.579Z,3.13
2019-06-10T01:24:31.410Z,2.80
2019-06-10T01:27:01.242Z,2.77
2019-06-10T01:29:32.169Z,3.20
2019-06-10T01:32:01.746Z,3.00
2019-06-10T01:34:31.218Z,2.80
2019-06-10T01:37:01.462Z,2.97
2019-06-10T01:39:31.022Z,2.67
2019-06-10T01:42:00.606Z,2.90
2019-06-10T01:44:31.036Z,2.97
2019-06-10T01:47:01.048Z,3.73
2019-06-10T01:49:30.827Z,3.00
2019-06-10T01:52:01.670Z,2.93
2019-06-10T01:54:31.668Z,3.10
2019-06-10T01:57:01.499Z,2.63
2019-06-10T01:59:31.270Z,3.80
2019-06-10T02:02:07.579Z,2.43
2019-06-10T02:04:36.538Z,2.47
2019-06-10T02:07:05.670Z,2.63
2019-06-10T02:09:34.705Z,2.80
2019-06-10T02:12:03.747Z,2.23
2019-06-10T02:14:32.813Z,2.40
2019-06-10T02:17:01.843Z,3.30
2019-06-10T02:19:31.324Z,3.50
2019-06-10T02:22:01.276Z,2.67
2019-06-10T02:24:31.546Z,2.97
2019-06-10T02:27:01.162Z,2.90
2019-06-10T02:29:30.876Z,2.87
2019-06-10T02:32:04.496Z,2.77
2019-06-10T02:34:34.104Z,2.70
2019-06-10T02:37:04.784Z,2.50
2019-06-10T02:39:38.327Z,2.87
2019-06-10T02:42:13.135Z,2.80
2019-06-10T02:44:44.181Z,2.80
2019-06-10T02:47:15.823Z,3.13
2019-06-10T02:49:57.099Z,3.37
2019-06-10T02:52:20.666Z,2.37
2019-06-10T02:54:53.118Z,2.47
2019-06-10T02:57:28.475Z,2.83
2019-06-10T02:59:54.379Z,3.20
2019-06-10T03:02:27.038Z,3.07
2019-06-10T03:04:53.748Z,2.70
2019-06-10T03:07:26.790Z,2.80
2019-06-10T03:09:54.083Z,2.70
2019-06-10T03:12:25.742Z,2.57
2019-06-10T03:14:54.729Z,3.00
2019-06-10T03:17:25.991Z,2.87
2019-06-10T03:19:55.273Z,2.57
2019-06-10T03:22:25.799Z,2.50
2019-06-10T03:24:54.940Z,3.07
2019-06-10T03:27:26.278Z,2.70
2019-06-10T03:29:54.790Z,2.90
2019-06-10T03:32:32.585Z,3.07
2019-06-10T03:34:55.076Z,2.87
2019-06-10T03:37:26.340Z,2.37
2019-06-10T03:39:55.359Z,3.57
2019-06-10T03:42:26.433Z,3.03
2019-06-10T03:44:55.273Z,2.70
2019-06-10T03:47:26.761Z,2.57
2019-06-10T03:49:56.212Z,3.47
2019-06-10T03:52:27.198Z,2.57
2019-06-10T03:54:56.620Z,2.80
2019-06-10T03:57:26.957Z,2.77
2019-06-10T03:59:56.474Z,3.50
2019-06-10T04:02:26.845Z,2.70
2019-06-10T04:04:56.425Z,3.33
2019-06-10T04:07:28.268Z,3.20
2019-06-10T04:09:56.210Z,3.23
2019-06-10T04:12:27.184Z,3.17
2019-06-10T04:14:56.035Z,3.70
2019-06-10T04:17:25.701Z,3.30
2019-06-10T04:20:09.184Z,3.13
2019-06-10T04:22:28.419Z,2.90
2019-06-10T04:24:57.478Z,2.83
2019-06-10T04:27:27.168Z,3.20
2019-06-10T04:29:57.400Z,3.07
2019-06-10T04:32:27.768Z,3.07
2019-06-10T04:34:57.262Z,3.13
2019-06-10T04:37:27.760Z,3.47
2019-06-10T04:39:57.653Z,3.30
2019-06-10T04:42:27.327Z,3.10
2019-06-10T04:44:56.495Z,3.10
2019-06-10T04:47:26.761Z,3.70
2019-06-10T04:49:56.314Z,2.53
2019-06-10T04:52:26.713Z,2.53
2019-06-10T04:54:56.153Z,4.20
2019-06-10T04:57:26.557Z,3.87
2019-06-10T04:59:55.905Z,3.13
2019-06-10T05:02:26.469Z,2.80
2019-06-10T05:04:55.580Z,3.40
2019-06-10T05:07:27.057Z,3.27
2019-06-10T05:09:55.273Z,3.00
2019-06-10T05:12:26.239Z,3.03
2019-06-10T05:14:55.098Z,3.37
2019-06-10T05:17:26.300Z,3.53
2019-06-10T05:19:54.960Z,2.83
2019-06-10T05:22:25.442Z,3.27
2019-06-10T05:24:54.802Z,3.00
2019-06-10T05:27:25.379Z,3.80
2019-06-10T05:29:54.620Z,3.07
2019-06-10T05:32:25.921Z,3.43
2019-06-10T05:34:54.460Z,3.50
2019-06-10T05:37:26.098Z,3.90
2019-06-10T05:39:54.403Z,2.90
2019-06-10T05:42:26.074Z,2.93
2019-06-10T05:44:54.337Z,4.90
2019-06-10T05:47:25.984Z,3.30
2019-06-10T05:49:53.966Z,3.30
2019-06-10T05:52:24.892Z,2.70
2019-06-10T05:54:54.194Z,2.97
2019-06-10T05:57:35.484Z,3.13
2019-06-10T06:00:11.422Z,3.20
2019-06-10T06:02:56.382Z,2.53
2019-06-10T06:05:25.991Z,2.97
2019-06-10T06:08:04.911Z,2.63
2019-06-10T06:10:27.259Z,3.13
2019-06-10T06:12:56.504Z,2.70
2019-06-10T06:15:25.547Z,2.60
2019-06-10T06:18:06.534Z,2.90
2019-06-10T06:20:25.367Z,2.60
2019-06-10T06:22:54.566Z,2.13
2019-06-10T06:25:24.229Z,2.70
2019-06-10T06:27:53.617Z,2.67
2019-06-10T06:30:36.141Z,2.53
2019-06-10T06:32:53.506Z,2.90
2019-06-10T06:35:22.751Z,2.77
2019-06-10T06:37:54.076Z,3.03
2019-06-10T06:40:23.159Z,2.80
2019-06-10T06:42:52.620Z,2.23
2019-06-10T06:45:22.271Z,2.53
2019-06-10T06:47:52.808Z,3.03
2019-06-10T06:50:25.569Z,2.70
2019-06-10T06:53:19.824Z,3.23
2019-06-10T06:55:30.674Z,5.70
2019-06-10T06:58:03.407Z,4.13
2019-06-10T07:01:00.122Z,2.70
2019-06-10T07:03:18.726Z,2.63
2019-06-10T07:05:47.801Z,3.17
2019-06-10T07:08:17.607Z,2.70
2019-06-10T07:10:47.900Z,3.83
2019-06-10T07:13:17.232Z,2.50
2019-06-10T07:15:47.662Z,2.57
2019-06-10T07:18:17.096Z,2.43
2019-06-10T07:20:46.241Z,2.80
2019-06-10T07:23:15.305Z,3.00
2019-06-10T07:25:47.246Z,2.90
2019-06-10T07:28:15.167Z,2.20
2019-06-10T07:30:51.222Z,2.77
2019-06-10T07:33:15.033Z,3.13
2019-06-10T07:35:45.352Z,2.70
2019-06-10T07:38:14.517Z,3.07
2019-06-10T07:40:45.654Z,2.87
2019-06-10T07:43:14.408Z,2.40
2019-06-10T07:45:47.579Z,2.67
2019-06-10T07:48:14.169Z,2.70
2019-06-10T07:50:45.600Z,2.70
2019-06-10T07:53:14.021Z,2.67
2019-06-10T07:55:46.259Z,2.53
2019-06-10T07:58:13.665Z,2.30
2019-06-10T08:00:46.471Z,2.70
2019-06-10T08:03:13.565Z,2.60
2019-06-10T08:05:45.053Z,3.40
2019-06-10T08:08:13.589Z,2.37
2019-06-10T08:10:44.837Z,2.93
2019-06-10T08:13:13.445Z,2.47
2019-06-10T08:15:44.642Z,2.67
2019-06-10T08:18:13.303Z,2.60
2019-06-10T08:20:45.525Z,2.60
2019-06-10T08:23:19.091Z,3.10
2019-06-10T08:25:56.460Z,3.30
2019-06-10T08:28:23.018Z,2.30
2019-06-10T08:30:53.206Z,2.40
2019-06-10T08:33:22.736Z,3.90
2019-06-10T08:35:57.270Z,2.30
2019-06-10T08:38:23.176Z,2.80
2019-06-10T08:40:52.584Z,2.70
2019-06-10T08:43:22.635Z,2.80
2019-06-10T08:45:53.007Z,2.63
2019-06-10T08:48:22.914Z,2.87
2019-06-10T08:50:53.117Z,3.10
2019-06-10T08:53:22.902Z,2.60
2019-06-10T08:55:53.584Z,3.30
2019-06-10T08:58:23.259Z,2.77
2019-06-10T09:00:53.531Z,2.00
2019-06-10T09:03:23.471Z,3.17
2019-06-10T09:05:54.458Z,2.53
2019-06-10T09:08:24.326Z,2.90
2019-06-10T09:10:55.130Z,2.70
2019-06-10T09:13:24.254Z,3.50
2019-06-10T09:16:09.693Z,3.17
2019-06-10T09:18:24.225Z,3.17
2019-06-10T09:20:56.030Z,2.33
2019-06-10T09:23:25.619Z,2.67
2019-06-10T09:25:57.436Z,2.47
2019-06-10T09:28:25.586Z,2.40
2019-06-10T09:30:59.181Z,3.30
2019-06-10T09:33:25.512Z,3.20
2019-06-10T09:35:55.132Z,2.67
2019-06-10T09:38:24.210Z,2.50
2019-06-10T09:41:01.252Z,2.87
2019-06-10T09:43:25.083Z,2.40
2019-06-10T09:45:56.221Z,2.63
2019-06-10T09:48:25.945Z,2.90
2019-06-10T09:50:58.804Z,2.90
2019-06-10T09:53:33.863Z,3.17
2019-06-10T09:55:56.590Z,3.07
2019-06-10T09:58:25.740Z,2.70
2019-06-10T10:00:58.224Z,2.70
2019-06-10T10:03:27.444Z,3.30
2019-06-10T10:06:09.789Z,2.70
2019-06-10T10:08:27.341Z,2.53
2019-06-10T10:10:58.912Z,2.57
2019-06-10T10:13:27.185Z,4.07
2019-06-10T10:15:56.241Z,2.80
2019-06-10T10:18:25.399Z,2.50
2019-06-10T10:20:59.175Z,2.97
2019-06-10T10:23:25.298Z,2.60
2019-06-10T10:25:56.922Z,2.60
2019-06-10T10:28:26.438Z,2.70
2019-06-10T10:30:57.936Z,1.93
2019-06-10T10:33:29.961Z,2.60
2019-06-10T10:35:57.281Z,2.40
2019-06-10T10:38:26.313Z,2.40
2019-06-10T10:40:58.599Z,2.70
2019-06-10T10:43:32.992Z,3.40
2019-06-10T10:46:00.219Z,2.03
2019-06-10T10:48:27.894Z,2.80
2019-06-10T10:50:56.940Z,2.70
2019-06-10T10:53:26.042Z,2.73
2019-06-10T10:55:55.083Z,1.67
2019-06-10T10:58:24.101Z,2.60
2019-06-10T11:00:56.512Z,2.40
2019-06-10T11:03:23.911Z,3.10
2019-06-10T11:06:00.492Z,2.73
2019-06-10T11:08:23.825Z,2.23
2019-06-10T11:10:57.821Z,2.17
2019-06-10T11:13:25.884Z,2.80
2019-06-10T11:15:56.681Z,2.43
2019-06-10T11:18:25.739Z,2.70
2019-06-10T11:20:54.836Z,2.90
2019-06-10T11:23:23.924Z,3.27
2019-06-10T11:25:56.649Z,3.33
2019-06-10T11:28:23.945Z,3.50
2019-06-10T11:30:56.713Z,2.90
2019-06-10T11:33:23.757Z,3.83
2019-06-10T11:35:55.096Z,3.13
2019-06-10T11:38:23.573Z,2.63
2019-06-10T11:40:57.741Z,3.20
2019-06-10T11:43:23.623Z,3.23
2019-06-10T11:45:59.003Z,2.40
2019-06-10T11:48:24.401Z,2.43
2019-06-10T11:50:56.493Z,3.13
2019-06-10T11:53:24.314Z,4.10
2019-06-10T11:55:53.799Z,2.60
2019-06-10T11:58:22.889Z,3.27
2019-06-10T12:00:55.863Z,3.23
2019-06-10T12:03:23.155Z,3.80
2019-06-10T12:05:55.767Z,3.30
2019-06-10T12:08:23.871Z,2.40
2019-06-10T12:10:57.285Z,2.87
2019-06-10T12:13:23.875Z,3.60
2019-06-10T12:16:32.742Z,2.83
2019-06-10T12:18:23.609Z,3.47
2019-06-10T12:20:57.559Z,4.03
2019-06-10T12:23:23.456Z,3.30
2019-06-10T12:25:55.909Z,2.87
2019-06-10T12:28:23.320Z,3.53
2019-06-10T12:30:56.229Z,3.13
2019-06-10T12:33:25.393Z,3.63
2019-06-10T12:35:58.162Z,2.97
2019-06-10T12:38:24.810Z,2.90
2019-06-10T12:40:56.889Z,2.87
2019-06-10T12:43:24.934Z,3.90
2019-06-10T12:45:55.872Z,4.00
2019-06-10T12:48:24.726Z,3.30
2019-06-10T12:50:55.979Z,3.53
2019-06-10T12:53:24.546Z,3.83
2019-06-10T12:55:55.830Z,3.80
2019-06-10T12:58:24.285Z,3.57
2019-06-10T13:00:54.343Z,3.20
2019-06-10T13:03:24.099Z,3.20
2019-06-10T13:05:53.530Z,3.00
2019-06-10T13:08:23.808Z,3.47
2019-06-10T13:10:53.550Z,3.30
2019-06-10T13:13:22.981Z,3.73
2019-06-10T13:15:53.189Z,3.50
2019-06-10T13:18:23.751Z,3.20
2019-06-10T13:20:53.940Z,3.77
2019-06-10T13:23:28.957Z,4.80
2019-06-10T13:25:58.750Z,4.10
2019-06-10T13:28:24.739Z,3.53
2019-06-10T13:30:54.691Z,3.80
2019-06-10T13:33:24.604Z,4.10
2019-06-10T13:35:53.913Z,3.77
2019-06-10T13:38:25.715Z,4.70
2019-06-10T13:40:54.027Z,3.90
2019-06-10T13:43:23.372Z,3.60
2019-06-10T13:45:53.294Z,3.70
2019-06-10T13:48:25.860Z,3.97
2019-06-10T13:50:53.580Z,4.10
2019-06-10T13:53:22.715Z,3.60
2019-06-10T13:56:02.647Z,3.90
2019-06-10T13:58:23.052Z,3.87
2019-06-10T14:00:53.670Z,3.67
2019-06-10T14:03:23.183Z,4.63
2019-06-10T14:05:57.767Z,3.40
2019-06-10T14:08:23.466Z,3.90
2019-06-10T14:10:54.152Z,4.33
2019-06-10T14:13:23.809Z,4.00
2019-06-10T14:15:54.457Z,4.57
2019-06-10T14:18:23.847Z,3.73
2019-06-10T14:20:53.370Z,3.17
2019-06-10T14:23:22.790Z,3.70
2019-06-10T14:25:53.285Z,4.13
2019-06-10T14:28:38.810Z,2.90
2019-06-10T14:30:53.974Z,3.30
2019-06-10T14:33:23.498Z,3.60
2019-06-10T14:35:53.503Z,3.70
2019-06-10T14:38:22.701Z,3.10
2019-06-10T14:40:52.498Z,3.73
2019-06-10T14:43:23.287Z,3.70
2019-06-10T14:45:53.402Z,3.43
2019-06-10T14:48:23.556Z,4.33
2019-06-10T14:50:53.501Z,3.37
2019-06-10T14:53:23.183Z,3.67
2019-06-10T14:55:53.211Z,3.60
2019-06-10T14:58:23.261Z,3.60
2019-06-10T15:00:54.114Z,4.37
2019-06-10T15:03:23.198Z,3.20
2019-06-10T15:05:53.025Z,3.63
2019-06-10T15:08:23.313Z,4.03
2019-06-10T15:10:53.355Z,4.50
2019-06-10T15:13:27.591Z,4.27
2019-06-10T15:15:57.252Z,3.53
2019-06-10T15:18:26.738Z,4.03
2019-06-10T15:20:55.905Z,4.30
2019-06-10T15:23:25.179Z,4.50
2019-06-10T15:25:57.180Z,3.93
2019-06-10T15:28:24.841Z,3.70
2019-06-10T15:30:53.893Z,4.03
2019-06-10T15:33:23.897Z,3.87
2019-06-10T15:35:53.576Z,3.77
2019-06-10T15:38:23.358Z,4.30
2019-06-10T15:40:53.343Z,3.80
2019-06-10T15:43:23.569Z,4.57
2019-06-10T15:45:53.243Z,4.77
2019-06-10T15:48:25.267Z,5.00
2019-06-10T15:50:53.136Z,6.67
2019-06-10T15:53:25.621Z,4.70
2019-06-10T15:56:13.425Z,4.07
2019-06-10T15:58:25.875Z,5.97
2019-06-10T16:00:54.522Z,4.90
2019-06-10T16:03:25.605Z,3.70
2019-06-10T16:05:54.399Z,6.87
2019-06-10T16:08:23.458Z,5.40
2019-06-10T16:10:52.854Z,4.40
2019-06-10T16:13:25.616Z,5.13
2019-06-10T16:15:53.428Z,6.37
2019-06-10T16:18:26.042Z,4.60
2019-06-10T16:20:53.391Z,5.97
2019-06-10T16:23:24.618Z,4.80
2019-06-10T16:25:53.759Z,5.47
2019-06-10T16:28:26.111Z,5.10
2019-06-10T16:30:54.151Z,5.73
2019-06-10T16:33:27.315Z,5.00
2019-06-10T16:35:54.858Z,6.57
2019-06-10T16:38:25.801Z,5.50
2019-06-10T16:40:54.635Z,8.27
2019-06-10T16:43:25.784Z,11.00
2019-06-10T16:45:54.611Z,10.50
2019-06-10T16:48:23.651Z,11.63
2019-06-10T16:50:54.295Z,13.00
2019-06-10T16:53:28.520Z,8.40
2019-06-10T16:55:54.191Z,7.97
2019-06-10T16:58:26.579Z,9.07
2019-06-10T17:00:54.652Z,8.40
2019-06-10T17:03:26.580Z,6.67
2019-06-10T17:05:54.458Z,8.17
2019-06-10T17:08:26.469Z,6.67
2019-06-10T17:10:54.281Z,6.73
2019-06-10T17:13:26.557Z,6.70
2019-06-10T17:15:55.850Z,7.63
2019-06-10T17:18:26.571Z,6.13
2019-06-10T17:20:55.835Z,6.70
2019-06-10T17:23:28.026Z,7.70
2019-06-10T17:25:57.550Z,6.60
2019-06-10T17:28:31.747Z,6.70
2019-06-10T17:30:59.029Z,7.80
2019-06-10T17:33:29.941Z,6.53
2019-06-10T17:38:34.765Z,7.27
2019-06-10T17:41:03.984Z,7.67
2019-06-10T17:43:34.448Z,6.40
2019-06-10T17:46:03.923Z,6.33
2019-06-10T17:48:33.999Z,8.30
2019-06-10T17:51:03.042Z,6.53
2019-06-10T17:53:34.627Z,6.77
2019-06-10T17:56:03.387Z,6.50
2019-06-10T17:58:47.509Z,5.17
2019-06-10T18:01:03.534Z,7.40
2019-06-10T18:03:33.398Z,6.33
2019-06-10T18:06:03.136Z,5.70
2019-06-10T18:08:34.911Z,5.80
2019-06-10T18:11:03.431Z,7.30
2019-06-10T18:13:34.736Z,6.50
2019-06-10T18:16:03.836Z,5.93
2019-06-10T18:18:36.640Z,5.27
2019-06-10T18:21:03.706Z,6.33
2019-06-10T18:23:33.121Z,7.40
2019-06-10T18:26:03.198Z,5.40
2019-06-10T18:28:45.362Z,5.73
2019-06-10T18:31:03.482Z,5.83
2019-06-10T18:33:36.013Z,5.77
2019-06-10T18:36:03.450Z,5.60
2019-06-10T18:38:35.178Z,6.60
2019-06-10T18:41:03.426Z,5.70
2019-06-10T18:43:34.150Z,6.67
2019-06-10T18:46:03.623Z,5.07
2019-06-10T18:48:36.114Z,5.70
2019-06-10T18:51:03.621Z,5.10
2019-06-10T18:53:33.498Z,5.80
2019-06-10T18:56:03.578Z,5.67
2019-06-10T18:58:35.522Z,5.93
2019-06-10T19:01:07.776Z,5.40
2019-06-10T19:03:36.325Z,5.87
2019-06-10T19:06:05.760Z,5.20
2019-06-10T19:08:36.019Z,6.10
2019-06-10T19:11:05.829Z,4.97
2019-06-10T19:13:37.054Z,6.50
2019-06-10T19:16:06.044Z,5.50
2019-06-10T19:18:36.078Z,6.00
2019-06-10T19:21:08.601Z,6.40
2019-06-10T19:23:37.786Z,6.13
2019-06-10T19:26:06.690Z,5.57
2019-06-10T19:28:38.419Z,5.27
2019-06-10T19:31:06.311Z,5.77
2019-06-10T19:33:37.047Z,6.90
2019-06-10T19:36:06.174Z,4.60
2019-06-10T19:38:36.688Z,5.60
2019-06-10T19:41:06.007Z,5.60
2019-06-10T19:43:36.518Z,5.77
2019-06-10T19:46:07.547Z,5.90
2019-06-10T19:48:40.167Z,4.40
2019-06-10T19:51:07.297Z,5.83
2019-06-10T19:53:37.253Z,5.93
2019-06-10T19:56:06.753Z,4.97
2019-06-10T19:58:46.515Z,5.17
2019-06-10T20:01:15.665Z,7.37
2019-06-10T20:03:46.423Z,4.20
2019-06-10T20:06:15.476Z,4.67
2019-06-10T20:08:46.128Z,3.97
2019-06-10T20:11:15.466Z,3.57
2019-06-10T20:13:46.623Z,3.93
2019-06-10T20:16:15.321Z,4.03
2019-06-10T20:18:47.547Z,4.57
2019-06-10T20:21:15.648Z,5.10
2019-06-10T20:23:45.895Z,3.83
2019-06-10T20:26:15.286Z,3.40
2019-06-10T20:28:46.706Z,3.50
2019-06-10T20:31:15.282Z,3.47
2019-06-10T20:33:44.426Z,3.73
2019-06-10T20:36:21.270Z,4.07
2019-06-10T20:38:47.276Z,4.27
2019-06-10T20:41:15.444Z,3.70
2019-06-10T20:43:47.145Z,4.13
2019-06-10T20:46:15.220Z,3.50
2019-06-10T20:48:47.479Z,3.30
2019-06-10T20:51:15.115Z,3.77
2019-06-10T20:53:45.994Z,4.97
2019-06-10T20:56:15.637Z,3.90
2019-06-10T20:58:46.456Z,4.77
2019-06-10T21:01:15.897Z,3.30
2019-06-10T21:03:47.615Z,3.87
2019-06-10T21:06:19.223Z,3.77
2019-06-10T21:08:51.171Z,5.00
2019-06-10T21:11:20.270Z,4.67
2019-06-10T21:13:51.119Z,3.80
2019-06-10T21:16:20.019Z,4.77
2019-06-10T21:18:50.365Z,4.67
2019-06-10T21:21:22.449Z,4.20
2019-06-10T21:23:51.778Z,4.53
2019-06-10T21:26:23.410Z,4.47
2019-06-10T21:28:54.893Z,5.63
2019-06-10T21:31:22.563Z,5.00
2019-06-10T21:33:55.405Z,4.53
2019-06-10T21:36:23.008Z,4.53
2019-06-10T21:38:55.687Z,4.90
2019-06-10T21:41:23.175Z,4.20
2019-06-10T21:43:59.030Z,5.07
2019-06-10T21:46:22.929Z,4.50
2019-06-10T21:48:53.221Z,5.47
2019-06-10T21:51:23.019Z,4.27
2019-06-10T21:53:54.728Z,4.90
2019-06-10T21:56:22.825Z,4.80
2019-06-10T21:58:54.129Z,5.90
2019-06-10T22:01:23.149Z,5.30
2019-06-10T22:03:59.962Z,5.70
2019-06-10T22:06:22.995Z,5.87
2019-06-10T22:08:54.577Z,6.63
2019-06-10T22:11:23.350Z,6.30
2019-06-10T22:13:55.771Z,5.50
2019-06-10T22:16:23.680Z,4.83
2019-06-10T22:18:52.991Z,6.00
2019-06-10T22:21:22.857Z,6.30
2019-06-10T22:23:55.053Z,5.93
2019-06-10T22:26:22.700Z,4.50
2019-06-10T22:28:54.088Z,5.43
2019-06-10T22:31:25.764Z,7.10
2019-06-10T22:33:55.625Z,5.40
2019-06-10T22:36:24.098Z,7.27
2019-06-10T22:38:55.831Z,5.73
2019-06-10T22:41:23.800Z,7.93
2019-06-10T22:43:55.798Z,7.67
2019-06-10T22:46:23.537Z,7.80
2019-06-10T22:48:53.417Z,6.23
2019-06-10T22:51:22.950Z,6.97
2019-06-10T22:53:54.851Z,5.83
2019-06-10T22:56:23.020Z,5.50
2019-06-10T22:58:53.940Z,6.80
2019-06-10T23:01:33.528Z,8.67
2019-06-10T23:03:54.178Z,7.43
2019-06-10T23:06:23.483Z,6.40
2019-06-10T23:08:54.702Z,7.87
2019-06-10T23:11:24.083Z,8.60
2019-06-10T23:13:55.027Z,6.40
2019-06-10T23:16:23.960Z,8.80
2019-06-10T23:18:54.990Z,7.57
2019-06-10T23:21:23.784Z,7.90
2019-06-10T23:23:55.425Z,6.73
2019-06-10T23:26:23.592Z,6.40
2019-06-10T23:28:54.441Z,5.87
2019-06-10T23:31:23.401Z,8.07
2019-06-10T23:33:56.017Z,5.63
2019-06-10T23:36:23.677Z,7.17
2019-06-10T23:38:53.042Z,6.70
2019-06-10T23:41:22.483Z,7.20
2019-06-10T23:43:53.031Z,7.00
2019-06-10T23:46:22.693Z,7.20
2019-06-10T23:48:51.911Z,7.10
2019-06-10T23:51:22.833Z,9.40
2019-06-10T23:53:54.416Z,7.40
2019-06-10T23:56:22.514Z,8.17
2019-06-10T23:58:53.749Z,7.40
